createdAt,value
2022-10-11T00:02:32.603Z,11.30
2022-10-11T00:07:35.223Z,9.63
2022-10-11T00:12:38.245Z,15.95
2022-10-11T00:17:40.725Z,14.68
2022-10-11T00:22:43.333Z,12.00
2022-10-11T00:27:45.916Z,11.20
2022-10-11T00:32:48.388Z,10.77
2022-10-11T00:37:50.866Z,10.55
2022-10-11T00:42:53.327Z,9.27
2022-10-11T00:47:57.543Z,12.00
2022-10-11T00:53:04.109Z,9.40
2022-10-11T00:58:09.019Z,11.87
2022-10-11T01:03:11.749Z,16.67
2022-10-11T01:08:14.249Z,10.57
2022-10-11T01:13:28.602Z,12.00
2022-10-11T01:18:48.640Z,10.30
2022-10-11T01:24:02.639Z,14.47
2022-10-11T01:29:33.171Z,12.38
2022-10-11T01:34:49.981Z,14.75
2022-10-11T01:39:57.781Z,12.07
2022-10-11T01:45:01.658Z,8.65
2022-10-11T01:50:05.449Z,11.10
2022-10-11T01:55:17.684Z,12.77
2022-10-11T02:00:22.589Z,9.80
2022-10-11T02:05:28.235Z,7.37
2022-10-11T02:10:41.151Z,9.15
2022-10-11T02:15:44.955Z,9.13
2022-10-11T02:20:48.313Z,9.65
2022-10-11T02:25:51.586Z,7.80
2022-10-11T02:30:54.818Z,12.73
2022-10-11T02:36:01.941Z,9.70
2022-10-11T02:41:29.300Z,9.97
2022-10-11T02:46:31.933Z,10.18
2022-10-11T02:51:34.503Z,8.15
2022-10-11T02:56:36.921Z,5.80
2022-10-11T03:01:39.458Z,6.18
2022-10-11T03:06:41.925Z,6.53
2022-10-11T03:11:44.485Z,9.27
2022-10-11T03:16:47.259Z,6.35
2022-10-11T03:21:49.700Z,6.13
2022-10-11T03:26:52.187Z,8.63
2022-10-11T03:31:54.692Z,12.57
2022-10-11T03:36:57.193Z,8.63
2022-10-11T03:41:59.635Z,12.90
2022-10-11T03:47:02.084Z,8.77
2022-10-11T03:52:04.677Z,12.18
2022-10-11T03:57:07.525Z,13.07
2022-10-11T04:02:10.128Z,12.52
2022-10-11T04:07:12.641Z,8.90
2022-10-11T04:12:15.155Z,7.53
2022-10-11T04:17:17.664Z,8.50
2022-10-11T04:22:20.112Z,13.17
2022-10-11T04:27:22.901Z,9.30
2022-10-11T04:32:25.386Z,17.85
2022-10-11T04:37:27.851Z,7.47
2022-10-11T04:42:30.301Z,8.02
2022-10-11T04:47:32.758Z,8.30
2022-10-11T04:52:35.246Z,8.13
2022-10-11T04:57:37.802Z,11.77
2022-10-11T05:02:40.266Z,7.70
2022-10-11T05:07:42.828Z,10.57
2022-10-11T05:12:45.526Z,8.53
2022-10-11T05:17:48.349Z,8.48
2022-10-11T05:22:50.813Z,12.98
2022-10-11T05:27:53.211Z,10.33
2022-10-11T05:32:55.701Z,26.00
2022-10-11T05:37:58.183Z,11.77
2022-10-11T05:43:00.706Z,7.50
2022-10-11T05:48:03.211Z,11.68
2022-10-11T05:53:06.349Z,9.10
2022-10-11T05:58:12.517Z,16.10
2022-10-11T06:03:16.554Z,14.80
2022-10-11T06:08:18.991Z,13.73
2022-10-11T06:13:21.593Z,16.58
2022-10-11T06:18:24.014Z,16.43
2022-10-11T06:23:27.193Z,11.25
2022-10-11T06:28:30.230Z,9.07
2022-10-11T06:33:33.412Z,12.02
2022-10-11T06:38:37.287Z,7.60
2022-10-11T06:43:41.398Z,12.47
2022-10-11T06:48:46.867Z,17.27
2022-10-11T06:53:51.454Z,16.63
2022-10-11T06:58:54.852Z,16.45
2022-10-11T07:03:58.712Z,15.43
2022-10-11T07:09:01.624Z,14.77
2022-10-11T07:14:07.966Z,17.25
2022-10-11T07:19:11.012Z,17.77
2022-10-11T07:24:13.496Z,17.10
2022-10-11T07:29:16.102Z,6.32
2022-10-11T07:34:20.662Z,26.70
2022-10-11T07:39:23.095Z,22.33
2022-10-11T07:44:25.634Z,8.97
2022-10-11T07:49:28.107Z,3.50
2022-10-11T07:54:30.544Z,5.93
2022-10-11T07:59:33.318Z,2.67
2022-10-11T08:04:36.576Z,11.38
2022-10-11T08:09:39.107Z,8.97
2022-10-11T08:14:42.109Z,7.68
2022-10-11T08:19:44.592Z,9.07
2022-10-11T08:24:47.072Z,8.80
2022-10-11T08:29:49.736Z,9.70
2022-10-11T08:34:52.938Z,8.83
2022-10-11T08:39:55.868Z,9.25
2022-10-11T08:45:16.708Z,13.00
2022-10-11T08:50:24.200Z,10.77
2022-10-11T08:55:44.162Z,11.23
2022-10-11T09:00:48.535Z,69.83
2022-10-11T09:06:10.366Z,17.73
2022-10-11T09:11:20.536Z,12.10
2022-10-11T09:16:28.901Z,11.37
2022-10-11T09:21:43.346Z,17.35
2022-10-11T09:26:56.882Z,19.63
2022-10-11T09:32:00.188Z,16.77
2022-10-11T09:37:21.715Z,15.73
2022-10-11T09:42:24.200Z,13.67
2022-10-11T09:47:33.017Z,16.75
2022-10-11T09:52:35.528Z,17.57
2022-10-11T09:57:40.275Z,15.57
2022-10-11T10:02:48.979Z,10.85
2022-10-11T10:08:05.490Z,14.33
2022-10-11T10:13:29.513Z,18.00
2022-10-11T10:18:38.357Z,16.90
2022-10-11T10:23:47.421Z,9.30
2022-10-11T10:28:58.357Z,13.98
2022-10-11T10:34:05.131Z,10.23
2022-10-11T10:39:37.717Z,8.38
2022-10-11T10:44:40.246Z,6.45
2022-10-11T10:50:10.252Z,15.33
2022-10-11T10:55:35.339Z,10.65
2022-10-11T11:00:46.387Z,12.97
2022-10-11T11:06:02.661Z,15.77
2022-10-11T11:11:36.859Z,10.13
2022-10-11T11:16:58.259Z,5.57
2022-10-11T11:22:15.724Z,5.50
2022-10-11T11:27:18.232Z,4.30
2022-10-11T11:32:51.662Z,6.78
2022-10-11T11:38:02.633Z,4.25
2022-10-11T11:43:33.811Z,2.30
2022-10-11T11:48:36.446Z,4.72
2022-10-11T11:54:06.377Z,12.23
2022-10-11T11:59:27.168Z,5.95
2022-10-11T12:04:32.179Z,7.47
2022-10-11T12:09:36.453Z,6.17
2022-10-11T12:14:42.664Z,6.13
2022-10-11T12:20:08.626Z,5.05
2022-10-11T12:25:14.951Z,5.43
2022-10-11T12:30:47.597Z,14.60
2022-10-11T12:35:57.919Z,10.43
2022-10-11T12:41:16.968Z,8.32
2022-10-11T12:46:31.405Z,13.38
2022-10-11T12:52:01.045Z,13.57
2022-10-11T12:57:12.550Z,9.82
2022-10-11T13:02:40.421Z,14.53
2022-10-11T13:07:43.400Z,17.67
2022-10-11T13:12:47.652Z,6.00
2022-10-11T13:17:52.899Z,9.73
2022-10-11T13:22:56.599Z,7.53
2022-10-11T13:27:59.642Z,6.83
2022-10-11T13:33:04.567Z,7.43
2022-10-11T13:38:15.268Z,8.77
2022-10-11T13:43:20.933Z,7.73
2022-10-11T13:48:25.245Z,12.07
2022-10-11T13:53:33.572Z,5.03
2022-10-11T13:58:38.740Z,18.10
2022-10-11T14:03:54.317Z,12.18
2022-10-11T14:08:58.618Z,16.27
2022-10-11T14:14:01.170Z,17.10
2022-10-11T14:19:10.123Z,14.77
2022-10-11T14:24:13.103Z,11.97
2022-10-11T14:29:28.392Z,15.85
2022-10-11T14:34:31.008Z,15.38
2022-10-11T14:39:33.972Z,16.90
2022-10-11T14:44:36.435Z,14.00
2022-10-11T14:49:38.877Z,11.77
2022-10-11T14:54:41.439Z,10.97
2022-10-11T14:59:43.895Z,16.15
2022-10-11T15:04:46.342Z,14.27
2022-10-11T15:09:48.766Z,17.63
2022-10-11T15:14:51.349Z,11.23
2022-10-11T15:19:54.169Z,12.23
2022-10-11T15:24:56.877Z,16.98
2022-10-11T15:29:59.318Z,17.87
2022-10-11T15:35:01.767Z,18.60
2022-10-11T15:40:17.672Z,14.48
2022-10-11T15:45:20.740Z,16.00
2022-10-11T15:50:34.856Z,13.93
2022-10-11T15:55:42.418Z,12.27
2022-10-11T16:00:46.563Z,14.65
2022-10-11T16:05:49.439Z,13.45
2022-10-11T16:10:52.336Z,15.23
2022-10-11T16:15:55.275Z,12.18
2022-10-11T16:20:57.841Z,13.83
2022-10-11T16:26:02.673Z,12.90
2022-10-11T16:31:10.544Z,13.35
2022-10-11T16:36:35.743Z,13.43
2022-10-11T16:41:38.635Z,16.20
2022-10-11T16:46:41.531Z,12.27
2022-10-11T16:51:44.050Z,14.40
2022-10-11T16:56:46.884Z,14.00
2022-10-11T17:01:49.771Z,18.37
2022-10-11T17:06:54.283Z,24.05
2022-10-11T17:11:56.749Z,24.43
2022-10-11T17:16:59.245Z,27.55
2022-10-11T17:22:01.710Z,32.53
2022-10-11T17:27:05.034Z,41.27
2022-10-11T17:32:08.231Z,29.67
2022-10-11T17:37:12.618Z,32.30
2022-10-11T17:42:15.091Z,30.63
2022-10-11T17:47:17.579Z,30.92
2022-10-11T17:52:20.127Z,33.77
2022-10-11T17:57:22.568Z,32.25
2022-10-11T18:02:25.167Z,35.57
2022-10-11T18:07:27.609Z,35.70
2022-10-11T18:12:30.280Z,39.40
2022-10-11T18:17:32.719Z,56.63
2022-10-11T18:22:35.205Z,42.13
2022-10-11T18:27:37.715Z,44.53
2022-10-11T18:32:40.140Z,25.15
2022-10-11T18:37:43.056Z,16.92
2022-10-11T18:42:45.516Z,17.63
2022-10-11T18:47:50.874Z,44.67
2022-10-11T18:52:53.378Z,29.80
2022-10-11T18:57:56.305Z,10.75
2022-10-11T19:02:58.802Z,20.40
2022-10-11T19:08:01.232Z,26.83
2022-10-11T19:13:04.078Z,26.02
2022-10-11T19:18:06.600Z,24.93
2022-10-11T19:23:09.134Z,21.60
2022-10-11T19:28:15.595Z,14.40
2022-10-11T19:33:19.463Z,16.13
2022-10-11T19:43:29.431Z,23.80
2022-10-11T19:48:32.282Z,20.92
2022-10-11T19:53:35.208Z,21.45
2022-10-11T19:58:38.013Z,36.10
2022-10-11T20:03:42.556Z,45.92
2022-10-11T20:08:45.990Z,37.40
2022-10-11T20:13:49.282Z,39.92
2022-10-11T20:18:53.307Z,61.38
2022-10-11T20:23:59.811Z,32.67
2022-10-11T20:29:03.491Z,29.02
2022-10-11T20:34:07.592Z,24.53
2022-10-11T20:39:10.746Z,31.02
2022-10-11T20:44:15.872Z,24.90
2022-10-11T20:49:20.059Z,25.20
2022-10-11T20:54:22.595Z,26.90
2022-10-11T20:59:25.199Z,27.20
2022-10-11T21:04:27.657Z,26.90
2022-10-11T21:09:30.177Z,21.27
2022-10-11T21:14:32.796Z,22.70
2022-10-11T21:19:35.213Z,32.50
2022-10-11T21:24:38.784Z,34.97
2022-10-11T21:29:41.246Z,34.35
2022-10-11T21:34:45.263Z,49.47
2022-10-11T21:39:47.776Z,34.83
2022-10-11T21:44:50.205Z,39.08
2022-10-11T21:49:52.624Z,41.70
2022-10-11T21:54:55.138Z,39.13
2022-10-11T21:59:57.569Z,34.92
2022-10-11T22:05:00.007Z,28.10
2022-10-11T22:10:02.484Z,24.88
2022-10-11T22:15:05.361Z,27.43
2022-10-11T22:20:08.532Z,24.60
2022-10-11T22:25:11.041Z,19.88
2022-10-11T22:30:13.520Z,24.60
2022-10-11T22:35:16.009Z,26.10
2022-10-11T22:40:19.037Z,18.77
2022-10-11T22:45:21.477Z,23.77
2022-10-11T22:50:23.895Z,16.40
2022-10-11T22:55:26.353Z,18.43
2022-10-11T23:00:28.892Z,20.52
2022-10-11T23:05:31.380Z,17.50
2022-10-11T23:10:33.920Z,21.15
2022-10-11T23:15:40.928Z,23.52
2022-10-11T23:20:43.412Z,18.33
2022-10-11T23:25:45.917Z,32.15
2022-10-11T23:30:48.375Z,22.83
2022-10-11T23:35:51.300Z,19.38
2022-10-11T23:40:53.720Z,17.67
2022-10-11T23:45:57.348Z,21.63
2022-10-11T23:50:59.805Z,20.90
2022-10-11T23:56:02.751Z,19.63
